Time;durP1;ratioP1;P1;durP2;ratioP2;P2;SDS_P1;SDS_P2;PMS_P1;PMS_P2;Temp;Humidity;BMP_temperature;BMP_pressure;BME280_temperature;BME280_humidity;BME280_pressure;Samples;Min_cycle;Max_cycle;Signal;HPM_P1;HPM_P2
2022/06/18 00:00:39;;;;;;;3.20;2.30;;;;;;;25.98;40.25;101676.38;4898096;28;123861;-67
2022/06/18 00:03:09;;;;;;;3.75;2.35;;;;;;;25.95;40.46;101676.66;4900320;28;124349;-67
2022/06/18 00:05:39;;;;;;;3.55;2.35;;;;;;;25.93;40.70;101678.66;4899358;28;114155;-67
2022/06/18 00:08:13;;;;;;;3.22;2.30;;;;;;;25.90;40.68;101684.34;4900626;28;114189;-67
2022/06/18 00:10:41;;;;;;;4.30;2.17;;;;;;;25.86;40.82;101678.34;4905570;28;123937;-67
2022/06/18 00:16:10;;;;;;;5.80;2.45;;;;;;;25.79;40.75;101672.69;4893514;28;115252;-66
2022/06/18 00:18:38;;;;;;;4.93;2.45;;;;;;;25.77;41.14;101671.13;4904421;28;115701;-67
2022/06/18 00:21:08;;;;;;;2.80;2.10;;;;;;;25.75;41.26;101665.84;4901036;28;124092;-66
2022/06/18 00:23:37;;;;;;;3.90;2.38;;;;;;;25.71;41.33;101667.16;4900636;28;124170;-67
2022/06/18 00:26:04;;;;;;;2.88;2.03;;;;;;;25.67;41.27;101663.00;4904647;28;114453;-67
2022/06/18 00:28:32;;;;;;;3.60;2.13;;;;;;;25.65;41.63;101670.44;4898512;28;114397;-67
2022/06/18 00:31:00;;;;;;;4.57;2.60;;;;;;;25.63;41.62;101667.03;4901782;28;123344;-67
2022/06/18 00:33:28;;;;;;;2.80;2.17;;;;;;;25.60;41.74;101668.19;4907858;28;123179;-66
2022/06/18 00:36:00;;;;;;;3.72;2.10;;;;;;;25.58;41.67;101667.47;4900899;28;114665;-66
2022/06/18 00:38:31;;;;;;;3.63;2.20;;;;;;;25.57;41.78;101673.91;4889537;28;114203;-66
2022/06/18 00:40:59;;;;;;;2.90;2.20;;;;;;;25.55;41.96;101669.63;4895230;28;124078;-66
2022/06/18 00:43:39;;;;;;;2.90;2.00;;;;;;;25.52;42.03;101670.75;4900283;28;124570;-67
2022/06/18 00:46:15;;;;;;;4.53;2.45;;;;;;;25.51;42.01;101662.78;4896291;28;114584;-64
2022/06/18 00:48:59;;;;;;;4.50;2.30;;;;;;;25.48;42.01;101668.50;4899409;28;114121;-64
2022/06/18 00:51:47;;;;;;;3.38;2.05;;;;;;;25.45;41.96;101659.66;4906227;28;123828;-64
2022/06/18 00:54:21;;;;;;;3.05;2.30;;;;;;;25.42;42.22;101664.53;4902647;28;123517;-65
2022/06/18 00:57:00;;;;;;;4.05;2.40;;;;;;;25.37;42.30;101662.25;4907457;28;113321;-65
2022/06/18 00:59:49;;;;;;;3.70;2.50;;;;;;;25.33;42.14;101668.94;4902091;28;114172;-65
2022/06/18 01:02:20;;;;;;;3.50;2.33;;;;;;;25.31;42.39;101667.41;4900227;28;124408;-65
2022/06/18 01:04:48;;;;;;;4.38;2.42;;;;;;;25.28;42.40;101673.97;4899025;28;124169;-68
2022/06/18 01:07:30;;;;;;;3.00;2.30;;;;;;;25.25;42.42;101668.84;4911471;28;114353;-68
2022/06/18 01:10:00;;;;;;;5.75;2.30;;;;;;;25.23;42.90;101668.13;4914773;28;114700;-67
2022/06/18 01:12:29;;;;;;;4.68;2.72;;;;;;;25.20;42.85;101671.97;4906942;28;123392;-67
2022/06/18 01:15:01;;;;;;;3.70;2.60;;;;;;;25.17;43.00;101661.41;4913961;28;123900;-68
2022/06/18 01:17:31;;;;;;;3.75;2.70;;;;;;;25.16;42.96;101658.81;4900912;28;117340;-68
2022/06/18 01:20:04;;;;;;;6.22;2.40;;;;;;;25.15;43.08;101662.56;4902896;28;114306;-68
2022/06/18 01:22:40;;;;;;;4.63;2.58;;;;;;;25.13;43.16;101654.56;4907221;28;124811;-68
2022/06/18 01:25:08;;;;;;;2.90;2.40;;;;;;;25.10;43.34;101648.56;4909639;28;123522;-68
2022/06/18 01:27:40;;;;;;;3.35;2.80;;;;;;;25.08;43.43;101647.84;4907775;28;113357;-68
2022/06/18 01:30:21;;;;;;;3.60;2.65;;;;;;;25.02;43.32;101647.44;4913733;28;113531;-68
2022/06/18 01:32:52;;;;;;;3.20;2.53;;;;;;;24.99;43.41;101647.69;4902192;28;123600;-68
2022/06/18 01:35:24;;;;;;;5.05;3.03;;;;;;;24.97;43.32;101649.69;4905204;28;126934;-67
2022/06/18 01:38:10;;;;;;;6.05;3.08;;;;;;;24.92;43.56;101646.59;4906292;28;113918;-67
2022/06/18 01:40:51;;;;;;;4.57;2.60;;;;;;;24.90;43.48;101658.56;4908569;28;113234;-68
2022/06/18 01:43:20;;;;;;;4.38;2.70;;;;;;;24.87;43.80;101643.44;4903584;28;123002;-67
2022/06/18 01:46:02;;;;;;;2.85;2.50;;;;;;;24.83;43.71;101642.03;4905912;28;123069;-68
2022/06/18 01:48:38;;;;;;;4.35;2.72;;;;;;;24.78;43.86;101645.16;4899465;28;113731;-67
2022/06/18 01:51:19;;;;;;;3.63;2.53;;;;;;;24.73;43.99;101642.00;4899380;28;113051;-68
2022/06/18 01:54:00;;;;;;;5.05;2.75;;;;;;;24.70;44.10;101636.88;4906308;28;123714;-68
2022/06/18 01:56:34;;;;;;;4.00;2.50;;;;;;;24.66;44.29;101641.72;4893871;28;123039;-68
2022/06/18 01:59:08;;;;;;;5.37;3.00;;;;;;;24.63;44.47;101642.00;4908566;28;117604;-64
2022/06/18 02:01:43;;;;;;;4.35;2.83;;;;;;;24.63;44.41;101652.00;4924991;28;117865;-65
2022/06/18 02:04:12;;;;;;;4.20;3.10;;;;;;;24.61;44.52;101641.28;4912215;28;123218;-65
2022/06/18 02:06:48;;;;;;;5.57;3.28;;;;;;;24.60;44.59;101631.47;4908755;28;123257;-65
2022/06/18 02:09:41;;;;;;;4.38;2.85;;;;;;;24.57;44.69;101631.75;4907563;28;113425;-64
2022/06/18 02:12:16;;;;;;;4.15;2.90;;;;;;;24.56;44.67;101634.59;4898154;28;113058;-64
2022/06/18 02:14:45;;;;;;;;;;;;;;;24.49;43.90;101623.44;4910241;28;122974;-64
2022/06/18 02:17:17;;;;;;;3.85;3.28;;;;;;;24.50;44.37;101635.97;4898213;28;126338;-64
2022/06/18 02:19:50;;;;;;;4.65;2.83;;;;;;;24.48;44.83;101627.13;4899534;28;115546;-64
2022/06/18 02:22:18;;;;;;;4.13;3.25;;;;;;;24.48;44.93;101635.25;4906339;28;116130;-65
2022/06/18 02:24:46;;;;;;;3.88;3.47;;;;;;;24.45;44.85;101622.03;4926077;28;123098;-65
2022/06/18 02:27:15;;;;;;;6.13;3.60;;;;;;;24.44;45.07;101631.13;4904345;28;124201;-66
2022/06/18 02:29:44;;;;;;;4.10;3.33;;;;;;;24.44;45.11;101625.72;4897142;28;114499;-67
2022/06/18 02:32:31;;;;;;;5.10;3.20;;;;;;;24.42;45.27;101622.28;4897696;28;114007;-67
2022/06/18 02:34:58;;;;;;;5.07;3.38;;;;;;;24.40;45.25;101621.59;4903536;28;124092;-66
2022/06/18 02:37:34;;;;;;;5.45;3.58;;;;;;;24.38;45.45;101615.44;4910182;28;122989;-66
2022/06/18 02:40:02;;;;;;;4.20;3.47;;;;;;;24.37;45.44;101620.00;4924675;28;113409;-67
2022/06/18 02:42:34;;;;;;;5.10;3.60;;;;;;;24.38;45.65;101623.56;4900597;28;113868;-66
2022/06/18 02:45:04;;;;;;;4.68;3.58;;;;;;;24.36;45.76;101625.56;4904920;28;124269;-67
2022/06/18 02:47:33;;;;;;;5.28;3.70;;;;;;;24.34;45.70;101614.88;4901369;28;125332;-67
2022/06/18 02:50:05;;;;;;;4.43;3.78;;;;;;;24.33;45.85;101625.84;4911299;28;114463;-68
2022/06/18 02:52:40;;;;;;;4.72;3.50;;;;;;;24.32;45.89;101629.53;4927806;28;117319;-67
2022/06/18 02:55:19;;;;;;;4.07;3.35;;;;;;;24.29;45.66;101628.81;4901775;28;124297;-67
2022/06/18 02:57:52;;;;;;;16.55;4.07;;;;;;;24.28;45.83;101624.41;4910489;28;123049;-67
2022/06/18 03:00:19;;;;;;;5.07;3.55;;;;;;;24.28;45.89;101627.13;4899871;28;114283;-67
2022/06/18 03:02:46;;;;;;;5.22;3.97;;;;;;;24.27;45.89;101625.41;4911239;28;113272;-67
2022/06/18 03:05:20;;;;;;;5.93;4.05;;;;;;;24.24;46.13;101635.63;4900065;28;122566;-67
2022/06/18 03:07:48;;;;;;;5.33;4.03;;;;;;;24.23;45.92;101634.78;4899129;28;123713;-65
2022/06/18 03:13:03;;;;;;;5.80;4.15;;;;;;;24.21;46.07;101636.78;4903069;28;114323;-64
2022/06/18 03:15:34;;;;;;;5.38;4.30;;;;;;;24.20;46.05;101635.06;4907348;28;124415;-65
2022/06/18 03:18:02;;;;;;;6.80;4.15;;;;;;;24.20;46.21;101640.47;4906963;28;124863;-65
2022/06/18 03:20:41;;;;;;;7.40;4.38;;;;;;;24.19;46.34;101636.06;4898599;28;113237;-65
2022/06/18 03:23:18;;;;;;;6.72;3.90;;;;;;;24.17;46.25;101635.34;4900986;28;113996;-67
2022/06/18 03:25:47;;;;;;;8.05;4.18;;;;;;;24.19;46.12;101638.78;4891530;28;123316;-68
2022/06/18 03:28:18;;;;;;;4.32;3.83;;;;;;;24.19;46.28;101633.38;4923600;28;123559;-68
2022/06/18 03:30:45;;;;;;;6.18;4.60;;;;;;;24.18;46.26;101637.06;4908204;28;113362;-67
2022/06/18 03:33:14;;;;;;;6.00;4.47;;;;;;;24.18;46.15;101636.22;4903396;28;115425;-68
2022/06/18 03:35:45;;;;;;;5.95;4.40;;;;;;;24.18;46.54;101644.31;4897566;28;123139;-67
2022/06/18 03:38:15;;;;;;;8.05;4.22;;;;;;;24.17;46.48;101639.94;4905324;28;123019;-67
2022/06/18 03:40:48;;;;;;;5.88;4.25;;;;;;;24.17;46.47;101640.78;4909398;28;114076;-68
2022/06/18 03:43:15;;;;;;;7.20;4.35;;;;;;;24.16;46.57;101644.47;4902484;28;115152;-68
2022/06/18 03:45:45;;;;;;;7.78;4.15;;;;;;;24.15;46.64;101653.59;4908504;28;123069;-65
2022/06/18 03:48:40;;;;;;;5.85;4.20;;;;;;;24.13;46.57;101650.16;4912438;28;122759;-64
2022/06/18 03:51:09;;;;;;;6.78;4.22;;;;;;;24.14;46.58;101656.44;4908855;28;113601;-64
2022/06/18 03:53:37;;;;;;;5.55;4.38;;;;;;;24.15;46.57;101648.19;4924822;28;116754;-64
2022/06/18 03:56:05;;;;;;;5.90;4.38;;;;;;;24.14;46.66;101651.88;4908304;28;124889;-64
2022/06/18 03:58:41;;;;;;;6.60;4.10;;;;;;;24.14;46.71;101657.28;4908594;28;122989;-64
2022/06/18 04:01:12;;;;;;;6.70;4.55;;;;;;;24.13;46.69;101650.16;4911644;28;113454;-64
2022/06/18 04:03:40;;;;;;;6.53;4.07;;;;;;;24.14;46.77;101642.91;4919127;28;113165;-67
2022/06/18 04:06:17;;;;;;;7.35;4.45;;;;;;;24.14;46.37;101635.63;4902877;28;126605;-66
2022/06/18 04:08:47;;;;;;;5.75;4.47;;;;;;;24.15;46.70;101645.47;4901428;28;124010;-65
2022/06/18 04:11:19;;;;;;;8.43;4.72;;;;;;;24.15;46.94;101640.06;4896419;28;114493;-66
2022/06/18 04:13:46;;;;;;;6.00;4.32;;;;;;;24.15;46.89;101631.94;4901874;28;113895;-65
2022/06/18 04:16:32;;;;;;;5.22;4.13;;;;;;;24.15;47.03;101637.34;4904480;28;124724;-65
2022/06/18 04:19:08;;;;;;;7.53;4.50;;;;;;;24.15;47.02;101637.34;4907769;28;127030;-66
2022/06/18 04:21:35;;;;;;;6.00;4.60;;;;;;;24.18;47.12;101642.47;4902286;28;113270;-65
2022/06/18 04:24:05;;;;;;;5.13;4.45;;;;;;;24.19;47.09;101638.78;4909550;28;113489;-65
2022/06/18 04:26:33;;;;;;;7.18;4.90;;;;;;;24.22;47.04;101633.09;4900168;28;123963;-65
2022/06/18 04:29:01;;;;;;;7.70;5.35;;;;;;;24.24;47.16;101628.41;4905337;28;123593;-65
2022/06/18 04:31:29;;;;;;;8.05;5.20;;;;;;;24.27;47.33;101636.22;4909397;28;114785;-65
2022/06/18 04:33:57;;;;;;;7.88;5.15;;;;;;;24.29;47.12;101639.66;4925398;28;113992;-65
2022/06/18 04:36:37;;;;;;;8.95;5.10;;;;;;;24.31;47.25;101625.97;4904401;28;123889;-65
2022/06/18 04:39:28;;;;;;;7.88;5.50;;;;;;;24.34;47.17;101630.28;4905411;28;123051;-66
2022/06/18 04:42:10;;;;;;;5.35;4.80;;;;;;;24.36;47.28;101628.28;4901460;28;114449;-63
2022/06/18 04:44:39;;;;;;;7.72;5.18;;;;;;;24.40;47.22;101624.28;4907682;28;114699;-66
2022/06/18 04:47:12;;;;;;;7.65;5.15;;;;;;;24.45;47.24;101624.72;4902451;28;123175;-66
2022/06/18 04:49:40;;;;;;;5.70;4.80;;;;;;;24.50;47.52;101630.56;4908602;28;123566;-67
2022/06/18 04:52:10;;;;;;;8.35;5.30;;;;;;;24.56;47.66;101632.72;4909565;28;113368;-66
2022/06/18 04:54:52;;;;;;;5.72;5.05;;;;;;;24.63;47.59;101642.00;4910788;28;117181;-66
2022/06/18 04:57:21;;;;;;;8.18;5.82;;;;;;;24.70;47.65;101641.47;4904802;28;123219;-64
2022/06/18 04:59:50;;;;;;;7.30;5.47;;;;;;;24.77;47.73;101643.47;4925023;28;123054;-64
2022/06/18 05:02:22;;;;;;;9.50;5.88;;;;;;;24.83;47.52;101632.03;4909443;28;113423;-64
2022/06/18 05:05:11;;;;;;;6.95;5.85;;;;;;;24.90;47.38;101631.44;4926241;28;113578;-64
2022/06/18 05:07:57;;;;;;;8.45;6.20;;;;;;;24.94;47.28;101644.59;4905888;28;124825;-64
2022/06/18 05:10:53;;;;;;;7.43;5.75;;;;;;;24.98;46.95;101643.28;4897627;28;124418;-63
2022/06/18 05:13:35;;;;;;;9.60;6.15;;;;;;;24.99;47.00;101641.44;4892976;28;113639;-63
2022/06/18 05:16:22;;;;;;;6.35;5.72;;;;;;;25.01;46.89;101644.84;4905154;28;114238;-63
2022/06/18 05:18:50;;;;;;;7.80;6.10;;;;;;;25.04;47.42;101645.41;4901190;28;123821;-63
2022/06/18 05:21:17;;;;;;;7.32;5.85;;;;;;;25.10;47.09;101648.56;4923168;28;123206;-64
2022/06/18 05:23:45;;;;;;;8.13;5.72;;;;;;;25.14;47.16;101644.56;4908197;28;114261;-64
2022/06/18 05:26:17;;;;;;;10.43;6.60;;;;;;;25.16;46.97;101650.69;4924139;28;114743;-63
2022/06/18 05:28:44;;;;;;;10.88;6.10;;;;;;;25.21;47.05;101651.97;4897353;28;123191;-65
2022/06/18 05:31:12;;;;;;;7.07;6.32;;;;;;;25.26;47.04;101654.28;4925664;28;123956;-66
2022/06/18 05:33:40;;;;;;;8.32;6.38;;;;;;;25.32;47.21;101642.84;4905256;28;113847;-63
2022/06/18 05:36:13;;;;;;;7.43;5.93;;;;;;;25.37;47.04;101656.84;4899341;28;113303;-63
2022/06/18 05:38:40;;;;;;;8.70;5.97;;;;;;;25.39;47.35;101649.41;4904559;28;124331;-64
2022/06/18 05:41:08;;;;;;;7.47;6.43;;;;;;;25.44;47.26;101652.50;4912885;28;123677;-64
2022/06/18 05:43:35;;;;;;;10.63;6.47;;;;;;;25.51;47.30;101646.53;4901994;28;114549;-64
2022/06/18 05:46:03;;;;;;;9.60;6.28;;;;;;;25.56;47.12;101649.63;4918622;28;113161;-64
2022/06/18 05:48:31;;;;;;;10.98;6.30;;;;;;;25.60;46.95;101656.50;4908539;28;123209;-64
2022/06/18 05:50:58;;;;;;;9.35;6.30;;;;;;;25.62;47.17;101659.91;4927162;28;124181;-67
2022/06/18 05:53:25;;;;;;;8.70;6.68;;;;;;;25.66;47.11;101661.31;4906178;28;114448;-67
2022/06/18 05:56:00;;;;;;;;;;;;;;;25.67;46.42;101657.59;4896967;28;114217;-67
2022/06/18 05:59:03;;;;;;;8.00;6.60;;;;;;;25.76;46.89;101667.53;4861107;28;124979;-67
2022/06/18 06:01:35;;;;;;;9.48;6.90;;;;;;;25.82;46.80;101656.13;4884708;28;123643;-67
2022/06/18 06:04:03;;;;;;;9.75;7.15;;;;;;;25.88;47.09;101653.78;4909017;28;113574;-67
2022/06/18 06:06:32;;;;;;;11.10;8.07;;;;;;;25.94;46.95;101653.25;4909510;28;113128;-66
2022/06/18 06:09:01;;;;;;;9.43;8.20;;;;;;;26.02;46.84;101661.47;4895939;28;123360;-66
2022/06/18 06:11:28;;;;;;;9.10;8.15;;;;;;;26.06;46.73;101652.03;4901315;28;122858;-67
2022/06/18 06:13:58;;;;;;;12.18;8.23;;;;;;;26.11;46.88;101660.59;4902629;28;114792;-66
2022/06/18 06:16:27;;;;;;;10.52;7.88;;;;;;;26.18;46.78;101642.69;4900588;28;114887;-66
2022/06/18 06:18:59;;;;;;;10.10;7.13;;;;;;;26.26;46.70;101635.59;4898083;28;126619;-66
2022/06/18 06:21:26;;;;;;;8.15;7.03;;;;;;;26.33;46.24;101643.00;4902498;28;123871;-66
2022/06/18 06:23:53;;;;;;;9.82;6.95;;;;;;;26.41;46.07;101636.81;4904870;28;113098;-65
2022/06/18 06:26:26;;;;;;;11.93;6.97;;;;;;;26.48;46.17;101632.44;4906091;28;114110;-64
2022/06/18 06:28:54;;;;;;;8.20;6.85;;;;;;;26.55;46.06;101630.84;4896721;28;124393;-64
2022/06/18 06:31:21;;;;;;;10.43;6.93;;;;;;;26.62;45.96;101631.13;4902519;28;124082;-65
2022/06/18 06:33:49;;;;;;;9.85;7.25;;;;;;;26.70;45.62;101628.47;4905425;28;114819;-65
2022/06/18 06:36:17;;;;;;;11.10;7.40;;;;;;;26.78;45.70;101630.41;4900500;28;114361;-65
2022/06/18 06:38:44;;;;;;;9.40;7.88;;;;;;;26.88;45.80;101639.34;4905663;28;124023;-65
2022/06/18 06:41:16;;;;;;;9.10;7.28;;;;;;;26.98;45.33;101640.09;4898708;28;123736;-65
2022/06/18 06:43:43;;;;;;;13.55;7.32;;;;;;;27.08;45.27;101633.72;4906675;28;113262;-65
2022/06/18 06:46:12;;;;;;;9.30;7.45;;;;;;;27.19;45.31;101638.88;4901682;28;114022;-65
2022/06/18 06:48:39;;;;;;;12.80;6.90;;;;;;;27.32;45.00;101644.78;4895734;28;124002;-65
2022/06/18 06:51:20;;;;;;;9.95;7.50;;;;;;;27.48;45.13;101643.19;4899653;28;124397;-65
2022/06/18 06:53:47;;;;;;;11.20;7.55;;;;;;;27.62;44.97;101642.59;4897227;28;114611;-65
2022/06/18 06:59:03;;;;;;;12.88;7.03;;;;;;;27.86;44.06;101646.44;4897396;28;123863;-66
2022/06/18 07:01:31;;;;;;;13.25;7.28;;;;;;;27.93;44.06;101642.09;4906291;28;123001;-65
2022/06/18 07:03:58;;;;;;;13.07;7.18;;;;;;;28.02;43.58;101646.56;4904001;28;115956;-65
2022/06/18 07:06:26;;;;;;;9.27;6.93;;;;;;;28.12;43.40;101647.28;4903671;28;115069;-65
2022/06/18 07:08:54;;;;;;;11.85;7.78;;;;;;;28.23;43.47;101637.09;4887088;28;123052;-65
2022/06/18 07:11:21;;;;;;;12.82;7.28;;;;;;;28.33;43.41;101645.97;4901598;28;123744;-65
2022/06/18 07:13:48;;;;;;;11.63;7.30;;;;;;;28.43;43.06;101643.13;4900101;28;114551;-65
2022/06/18 07:16:16;;;;;;;12.05;6.82;;;;;;;28.52;43.03;101642.16;4905869;28;113845;-65
2022/06/18 07:18:44;;;;;;;9.60;7.00;;;;;;;28.61;43.04;101645.72;4896751;28;123008;-65
2022/06/18 07:21:13;;;;;;;11.18;7.07;;;;;;;28.72;42.94;101639.94;4899829;28;124693;-65
2022/06/18 07:23:41;;;;;;;11.45;6.43;;;;;;;28.83;42.98;101639.59;4899798;28;114242;-68
2022/06/18 07:26:12;;;;;;;10.43;6.70;;;;;;;28.97;42.82;101645.38;4907706;28;113054;-65
2022/06/18 07:28:42;;;;;;;12.38;7.13;;;;;;;29.06;42.59;101638.91;4906105;28;123722;-65
2022/06/18 07:31:15;;;;;;;11.27;7.28;;;;;;;29.16;42.25;101642.38;4903344;28;123559;-66
2022/06/18 07:33:43;;;;;;;10.88;6.90;;;;;;;29.26;42.25;101643.00;4904428;28;114168;-65
2022/06/18 07:36:10;;;;;;;13.40;7.22;;;;;;;29.36;41.79;101639.25;4896557;28;114066;-68
2022/06/18 07:38:38;;;;;;;9.88;7.05;;;;;;;29.42;41.88;101633.97;4900613;28;126025;-68
2022/06/18 07:41:05;;;;;;;12.00;6.78;;;;;;;29.52;41.68;101641.97;4895933;28;123703;-68
2022/06/18 07:43:40;;;;;;;12.73;6.75;;;;;;;29.62;42.12;101628.94;4899837;28;114034;-68
2022/06/18 07:46:10;;;;;;;10.27;7.07;;;;;;;29.76;41.54;101629.25;4893559;28;114277;-68
2022/06/18 07:48:43;;;;;;;12.88;7.63;;;;;;;29.87;41.49;101637.06;4905960;28;124544;-69
2022/06/18 07:51:11;;;;;;;12.50;7.47;;;;;;;29.94;41.19;101632.59;4897131;28;124051;-68
2022/06/18 07:53:39;;;;;;;13.10;7.28;;;;;;;29.99;41.26;101630.19;4899554;28;115665;-68
2022/06/18 07:56:08;;;;;;;12.98;8.32;;;;;;;30.07;40.83;101626.56;4897857;28;115206;-68
2022/06/18 07:58:35;;;;;;;11.30;7.53;;;;;;;30.13;41.22;101609.47;4909770;28;124055;-68
2022/06/18 08:01:03;;;;;;;14.40;8.57;;;;;;;30.21;40.73;101617.59;4898905;28;123708;-68
2022/06/18 08:03:31;;;;;;;10.52;6.80;;;;;;;30.28;41.17;101617.75;4898783;28;114184;-68
2022/06/18 08:05:58;;;;;;;13.77;8.07;;;;;;;30.39;40.77;101614.63;4902043;28;113178;-68
2022/06/18 08:08:25;;;;;;;11.80;7.22;;;;;;;30.49;40.55;101619.84;4900842;28;124160;-69
2022/06/18 08:11:06;;;;;;;15.10;7.13;;;;;;;30.58;40.55;101612.44;4901481;28;123804;-68
2022/06/18 08:13:33;;;;;;;12.88;7.57;;;;;;;30.66;40.74;101615.09;4901593;28;114342;-68
2022/06/18 08:16:02;;;;;;;14.20;7.90;;;;;;;30.75;40.27;101613.16;4894747;28;114388;-68
2022/06/18 08:18:29;;;;;;;17.05;7.55;;;;;;;30.80;39.86;101606.13;4905581;28;123912;-67
2022/06/18 08:21:05;;;;;;;10.80;6.90;;;;;;;30.85;40.57;101608.28;4899392;28;123858;-68
2022/06/18 08:23:33;;;;;;;12.95;7.22;;;;;;;30.94;40.14;101607.22;4900189;28;114471;-68
2022/06/18 08:26:01;;;;;;;12.60;7.90;;;;;;;31.03;39.93;101605.25;4908847;28;113946;-67
2022/06/18 08:28:30;;;;;;;13.63;7.55;;;;;;;31.08;39.97;101602.81;4895233;28;124085;-68
2022/06/18 08:31:00;;;;;;;11.38;7.38;;;;;;;31.15;39.52;101603.75;4900006;28;123901;-68
2022/06/18 08:33:29;;;;;;;12.27;7.22;;;;;;;31.19;39.24;101599.63;4909890;28;114460;-68
2022/06/18 08:35:59;;;;;;;11.73;7.88;;;;;;;31.26;39.07;101598.88;4899087;28;114004;-68
2022/06/18 08:38:27;;;;;;;11.82;6.95;;;;;;;31.32;39.07;101609.06;4901958;28;124144;-68
2022/06/18 08:41:10;;;;;;;12.88;6.30;;;;;;;31.36;39.18;101599.44;4899876;28;123992;-68
2022/06/18 08:43:57;;;;;;;11.02;6.28;;;;;;;31.41;39.27;101599.72;4902861;28;115667;-68
2022/06/18 08:46:40;;;;;;;9.60;6.28;;;;;;;31.52;38.99;101602.03;4906468;28;114194;-64
2022/06/18 08:49:20;;;;;;;8.65;6.32;;;;;;;31.58;38.73;101598.50;4902259;28;124739;-65
2022/06/18 08:52:18;;;;;;;9.15;6.43;;;;;;;31.68;39.13;101602.84;4896663;28;123946;-66
2022/06/18 08:54:58;;;;;;;13.77;6.68;;;;;;;31.78;38.67;101603.44;4897808;28;114303;-65
2022/06/18 08:57:37;;;;;;;12.63;6.32;;;;;;;31.86;38.44;101599.72;4899119;28;113788;-65
2022/06/18 09:00:18;;;;;;;11.50;6.70;;;;;;;31.94;38.10;101597.72;4898815;28;124705;-65
2022/06/18 09:03:05;;;;;;;11.45;6.57;;;;;;;32.01;38.28;101598.66;4898311;28;123810;-65
2022/06/18 09:05:51;;;;;;;9.88;5.18;;;;;;;32.11;38.75;101605.75;4910459;28;113869;-65
2022/06/18 09:08:27;;;;;;;9.63;5.57;;;;;;;32.19;37.93;101614.72;4897361;28;114323;-65
2022/06/18 09:11:03;;;;;;;10.07;5.15;;;;;;;32.26;37.66;101601.06;4903375;28;124051;-65
2022/06/18 09:13:39;;;;;;;10.40;5.43;;;;;;;32.30;37.37;101607.84;4928915;28;123118;-65
2022/06/18 09:16:11;;;;;;;8.35;5.28;;;;;;;32.35;37.29;101605.38;4924575;28;114491;-67
2022/06/18 09:18:49;;;;;;;16.83;6.60;;;;;;;32.39;36.91;101601.19;4900769;28;114242;-67
2022/06/18 09:21:32;;;;;;;10.82;5.90;;;;;;;32.44;37.10;101613.47;4903173;28;124152;-68
2022/06/18 09:24:05;;;;;;;10.45;5.25;;;;;;;32.47;37.50;101616.69;4905083;28;125635;-68
2022/06/18 09:26:38;;;;;;;12.85;6.18;;;;;;;32.56;37.63;101620.16;4900825;28;114411;-67
2022/06/18 09:29:30;;;;;;;9.15;5.20;;;;;;;32.62;37.09;101619.38;4922047;28;112904;-68
2022/06/18 09:32:07;;;;;;;11.52;5.50;;;;;;;32.70;37.11;101618.41;4904087;28;124558;-68
2022/06/18 09:34:49;;;;;;;13.02;6.07;;;;;;;32.80;37.29;101612.59;4903892;28;123815;-65
2022/06/18 09:37:42;;;;;;;13.10;6.00;;;;;;;32.87;37.13;101608.00;4903866;28;96755;-64
2022/06/18 09:40:18;;;;;;;11.77;6.43;;;;;;;32.93;37.14;101601.75;4914845;28;115415;-65
2022/06/18 09:42:51;;;;;;;9.82;6.55;;;;;;;32.98;37.13;101590.97;4904393;28;124210;-64
2022/06/18 09:45:30;;;;;;;11.15;6.22;;;;;;;33.06;36.99;101590.84;4896899;28;123976;-64
2022/06/18 09:48:02;;;;;;;11.13;5.68;;;;;;;33.15;37.22;101589.69;4913655;28;113109;-67
2022/06/18 09:50:40;;;;;;;10.90;5.55;;;;;;;33.24;37.16;101584.03;4898952;28;114283;-68
2022/06/18 09:53:23;;;;;;;9.35;5.35;;;;;;;33.34;36.45;101587.25;4900760;28;124744;-67
2022/06/18 09:55:54;;;;;;;10.27;5.35;;;;;;;33.41;35.77;101585.41;4923029;28;123884;-65
2022/06/18 09:58:28;;;;;;;12.20;5.57;;;;;;;33.45;36.61;101577.59;4899059;28;114168;-65
2022/06/18 10:00:57;;;;;;;10.13;5.10;;;;;;;33.52;36.90;101582.06;4903812;28;114065;-65
2022/06/18 10:09:34;;;;;;;9.88;5.20;;;;;;;33.83;36.73;101582.66;4899623;28;114542;-68
2022/06/18 10:12:16;;;;;;;12.45;6.07;;;;;;;33.94;35.90;101565.56;4897352;28;114469;-68
2022/06/18 10:14:45;;;;;;;9.70;5.47;;;;;;;34.04;35.75;101565.19;4904898;28;124529;-68
2022/06/18 10:17:31;;;;;;;8.48;4.93;;;;;;;34.12;35.44;101567.75;4909201;28;124230;-68
2022/06/18 10:20:01;;;;;;;14.55;4.90;;;;;;;34.17;35.55;101570.75;4907700;28;114180;-69
2022/06/18 10:22:56;;;;;;;12.52;5.70;;;;;;;34.20;34.83;101564.00;4909543;28;113950;-67
2022/06/18 10:25:43;;;;;;;10.70;5.05;;;;;;;34.21;35.86;101562.91;4907310;28;124313;-68
2022/06/18 10:28:53;;;;;;;10.45;6.18;;;;;;;34.28;34.92;101563.78;4908721;28;126144;-68
2022/06/18 10:31:48;;;;;;;9.38;5.32;;;;;;;34.36;34.86;101574.59;4882937;28;115541;-63
2022/06/18 10:34:40;;;;;;;8.02;5.60;;;;;;;34.39;34.76;101573.31;4899556;28;115063;-65
2022/06/18 10:37:22;;;;;;;9.45;4.57;;;;;;;34.40;35.08;101570.38;4904214;28;124975;-68
2022/06/18 10:40:30;;;;;;;6.00;4.07;;;;;;;34.44;34.48;101565.31;4908045;28;124603;-68
2022/06/18 10:43:19;;;;;;;11.25;4.70;;;;;;;34.45;34.36;101556.84;4910068;28;114303;-68
2022/06/18 10:45:56;;;;;;;7.85;4.43;;;;;;;34.48;34.26;101569.31;4915289;28;114189;-66
2022/06/18 10:48:26;;;;;;;10.05;5.20;;;;;;;34.51;34.19;101566.16;4905864;28;124849;-65
2022/06/18 10:50:56;;;;;;;10.18;4.80;;;;;;;34.54;33.97;101551.97;4904943;28;123816;-63
2022/06/18 10:53:26;;;;;;;10.77;5.13;;;;;;;34.56;34.28;101552.59;4894999;28;114640;-63
2022/06/18 10:56:03;;;;;;;9.98;4.90;;;;;;;34.62;34.31;101550.91;4908509;28;113922;-64
2022/06/18 10:58:32;;;;;;;11.15;5.45;;;;;;;34.67;34.12;101543.72;4891644;28;124908;-64
2022/06/18 11:01:03;;;;;;;8.35;4.72;;;;;;;34.73;34.34;101541.19;4896600;28;124124;-64
2022/06/18 11:03:33;;;;;;;8.80;4.93;;;;;;;34.83;34.63;101538.84;4903099;28;114892;-64
2022/06/18 11:06:09;;;;;;;10.93;4.88;;;;;;;34.91;34.01;101544.16;4900482;28;114859;-64
2022/06/18 11:08:37;;;;;;;11.75;5.10;;;;;;;34.97;34.46;101540.53;4900073;28;124697;-67
2022/06/18 11:11:07;;;;;;;12.25;5.15;;;;;;;35.02;34.28;101538.00;4892263;28;124162;-67
2022/06/18 11:13:38;;;;;;;13.02;5.40;;;;;;;35.08;33.66;101545.38;4898089;28;114602;-63
2022/06/18 11:16:12;;;;;;;10.95;4.75;;;;;;;35.10;33.66;101537.75;4895890;28;114016;-63
2022/06/18 11:18:54;;;;;;;10.48;4.93;;;;;;;35.08;33.79;101528.88;4895572;28;125139;-64
2022/06/18 11:21:39;;;;;;;9.23;5.03;;;;;;;35.10;33.53;101537.75;4893911;28;125254;-64
2022/06/18 11:24:13;;;;;;;14.50;4.60;;;;;;;35.13;33.49;101527.38;4893803;28;115414;-63
2022/06/18 11:26:52;;;;;;;9.07;4.80;;;;;;;35.14;33.80;101520.81;4894889;28;115442;-66
2022/06/18 11:29:36;;;;;;;10.40;5.25;;;;;;;35.15;33.21;101522.47;4907544;28;123540;-66
2022/06/18 11:32:19;;;;;;;6.82;4.00;;;;;;;35.13;33.51;101513.59;4911385;28;123398;-66
2022/06/18 11:35:01;;;;;;;9.77;4.85;;;;;;;35.13;33.33;101508.94;4893956;28;114590;-67
2022/06/18 11:37:31;;;;;;;10.38;4.80;;;;;;;35.16;32.84;101502.16;4896716;28;114307;-67
2022/06/18 11:40:06;;;;;;;11.80;4.68;;;;;;;35.19;33.09;101490.72;4902249;28;124049;-67
2022/06/18 11:42:42;;;;;;;11.98;4.43;;;;;;;35.23;32.27;101486.50;4901138;28;124564;-67
2022/06/18 11:45:17;;;;;;;6.95;4.28;;;;;;;35.23;32.58;101486.50;4898086;28;114462;-67
2022/06/18 11:47:58;;;;;;;10.80;4.43;;;;;;;35.24;32.69;101480.75;4898579;28;114340;-66
2022/06/18 11:50:41;;;;;;;6.20;3.70;;;;;;;35.28;33.06;101482.03;4894428;28;124402;-67
2022/06/18 11:53:32;;;;;;;16.10;4.30;;;;;;;35.37;32.69;101471.59;4893412;28;123748;-66
2022/06/18 11:56:11;;;;;;;10.45;3.95;;;;;;;35.41;32.68;101478.34;4894330;28;113183;-67
2022/06/18 11:58:50;;;;;;;9.32;3.90;;;;;;;35.44;32.52;101472.41;4897908;28;113821;-67